LIED/DCI METAR and TAF weather

Enter ICAO airport designator
Station Type Date Time Source
LIED METAR 2020/07/10 23:55 UTC NOAA

LIED 102355Z 06002KT CAVOK 23/21 Q1015 RMK FEW FEW200 VIS MIN 9999 WIND THR35 06002KT WIND THR17 /////KT BLU


Station Type Date Time Source
LIED Decoded METAR 2020/07/10 23:55 UTC NOAA

Decimomannu, Italy (LIED) 39-21N 008-58E 28M
Jul 10, 2020 - 07:55 PM EDT / 2020.07.10 2355 UTC
Wind: from the ENE (060 degrees) at 2 MPH (2 KT):0
Visibility: greater than 7 mile(s):0
Temperature: 73 F (23 C)
Dew Point: 69 F (21 C)
Relative Humidity: 88%
Pressure (altimeter): 29.97 in. Hg (1015 hPa)
ob: LIED 102355Z 06002KT CAVOK 23/21 Q1015 RMK FEW FEW200 VIS MIN 9999 WIND THR35 06002KT WIND THR17 /////KT BLU
cycle: 0

Station Type Date Time Source
LIED TAF 2020/06/17 18:36 UTC NOAA

TAF TAF
AMD LIED 171701Z 1718/1806 32010KT CAVOK

Example: see airport list